ETD957 HKJK-EHAM
Flight info
| Callsign | ETD957 |
|---|---|
| Flight time | N/A |
| Altitude | 34000 |
| Route | ANTUK2D APKUB UQ293 IMPOG DCT SIPKI/N0485F350 UT325 BUN/N0485F340 UG862 EDILO/N0485F360 UG862 DIR/N0478F380 UB730 BOD UM508 TGU UJ36 BSA/N0468F390 UB726 ZEM/N0465F380 UB16 PECES N853 LUMAS/N0475F400 DCT SOFFY DCT MRM DCT MTL DCT ETREK DCT MADOT DCT MOPEM DCT CACHI DCT AVLON DCT OKRIX DCT BRY DCT CLM DCT NURMO DCT SULEX DCT VEKIN DCT ADUTO N873 FERDI/N0398F240 Y18 DENUT |
| Aircraft | B77L/H-SDE1E2E3FGHIJ2J3J4J5M1RWXY/LB1D1 |
Departure
| Time | 2026-05-08 00:03 |
|---|---|
| Airport | Jomo Kenyatta International Airport (HKJK) |
Arrival
| Time | N/A |
|---|---|
| Airport | Amsterdam Airport Schiphol (EHAM) |
| Time | Latitude | Longitude | Altitude | Speed | Heading |
|---|---|---|---|---|---|
| 2026-05-07 23:43 | -1.33572 | 36.91294 | 5335 ft | 0 kts | 144° |
| 2026-05-07 23:55 | -1.33562 | 36.91287 | 5335 ft | 4 kts | 143° |
| 2026-05-07 23:55 | -1.33540 | 36.91271 | 5332 ft | 4 kts | 143° |
| 2026-05-07 23:55 | -1.33519 | 36.91255 | 5335 ft | 4 kts | 139° |
| 2026-05-07 23:56 | -1.33506 | 36.91242 | 5335 ft | 2 kts | 117° |
| 2026-05-07 23:56 | -1.33503 | 36.91231 | 5335 ft | 2 kts | 68° |
| 2026-05-07 23:56 | -1.33508 | 36.91222 | 5335 ft | 2 kts | 55° |
| 2026-05-07 23:56 | -1.33510 | 36.91219 | 5335 ft | 0 kts | 54° |
| 2026-05-07 23:58 | -1.33507 | 36.91223 | 5335 ft | 3 kts | 54° |
| 2026-05-07 23:59 | -1.33484 | 36.91255 | 5335 ft | 9 kts | 54° |
| 2026-05-07 23:59 | -1.33435 | 36.91322 | 5333 ft | 15 kts | 54° |
| 2026-05-07 23:59 | -1.33365 | 36.91419 | 5334 ft | 20 kts | 54° |
| 2026-05-07 23:59 | -1.33273 | 36.91546 | 5334 ft | 25 kts | 54° |
| 2026-05-08 00:00 | -1.33150 | 36.91668 | 5332 ft | 25 kts | 42° |
| 2026-05-08 00:00 | -1.33036 | 36.91798 | 5340 ft | 25 kts | 34° |
| 2026-05-08 00:00 | -1.32926 | 36.91776 | 5342 ft | 16 kts | 320° |
| 2026-05-08 00:00 | -1.32845 | 36.91711 | 5345 ft | 7 kts | 322° |
| 2026-05-08 00:01 | -1.32844 | 36.91710 | 5345 ft | 0 kts | 324° |
| 2026-05-08 00:01 | -1.32842 | 36.91708 | 5345 ft | 3 kts | 324° |
| 2026-05-08 00:02 | -1.32779 | 36.91668 | 5345 ft | 15 kts | 343° |
| 2026-05-08 00:02 | -1.32685 | 36.91730 | 5341 ft | 22 kts | 52° |
| 2026-05-08 00:02 | -1.32485 | 36.92009 | 5334 ft | 81 kts | 54° |
| 2026-05-08 00:02 | -1.32030 | 36.92630 | 5317 ft | 138 kts | 54° |
| 2026-05-08 00:03 | -1.31367 | 36.93537 | 5303 ft | 182 kts | 53° |
| 2026-05-08 00:03 | -1.30576 | 36.94589 | 5558 ft | 195 kts | 53° |
| 2026-05-08 00:03 | -1.29747 | 36.95702 | 5929 ft | 206 kts | 55° |
| 2026-05-08 00:03 | -1.29080 | 36.97063 | 5960 ft | 232 kts | 80° |
| 2026-05-08 00:04 | -1.29302 | 36.98670 | 6323 ft | 248 kts | 123° |
| 2026-05-08 00:04 | -1.30644 | 36.99714 | 7035 ft | 250 kts | 167° |
| 2026-05-08 00:04 | -1.32339 | 36.99625 | 8024 ft | 244 kts | 194° |
| 2026-05-08 00:04 | -1.33952 | 36.99175 | 8907 ft | 241 kts | 204° |
| 2026-05-08 00:05 | -1.35313 | 36.98091 | 9111 ft | 265 kts | 239° |
| 2026-05-08 00:05 | -1.35919 | 36.96317 | 9407 ft | 283 kts | 261° |
| 2026-05-08 00:05 | -1.36138 | 36.94331 | 10042 ft | 291 kts | 271° |
| 2026-05-08 00:05 | -1.36074 | 36.92280 | 10527 ft | 300 kts | 267° |
| 2026-05-08 00:06 | -1.36339 | 36.90156 | 10875 ft | 321 kts | 258° |
| 2026-05-08 00:06 | -1.36921 | 36.87905 | 11068 ft | 348 kts | 253° |
| 2026-05-08 00:06 | -1.37602 | 36.85504 | 11215 ft | 367 kts | 260° |
| 2026-05-08 00:06 | -1.37526 | 36.82919 | 11664 ft | 381 kts | 284° |
| 2026-05-08 00:07 | -1.36599 | 36.80427 | 12191 ft | 385 kts | 292° |
| 2026-05-08 00:07 | -1.35558 | 36.77943 | 12180 ft | 389 kts | 292° |
| 2026-05-08 00:07 | -1.34505 | 36.75443 | 12187 ft | 388 kts | 292° |
| 2026-05-08 00:07 | -1.33468 | 36.72964 | 12183 ft | 386 kts | 292° |
| 2026-05-08 00:08 | -1.32440 | 36.70490 | 12185 ft | 385 kts | 292° |
| 2026-05-08 00:08 | -1.31424 | 36.68024 | 12616 ft | 392 kts | 292° |
| 2026-05-08 00:08 | -1.30384 | 36.65487 | 13431 ft | 396 kts | 292° |
| 2026-05-08 00:08 | -1.29340 | 36.62932 | 14241 ft | 399 kts | 292° |
| 2026-05-08 00:09 | -1.28281 | 36.60337 | 14923 ft | 403 kts | 292° |
| 2026-05-08 00:09 | -1.27578 | 36.58613 | 15388 ft | 405 kts | 292° |
| 2026-05-08 00:09 | -1.26510 | 36.55993 | 16080 ft | 410 kts | 292° |
| 2026-05-08 00:09 | -1.25431 | 36.53344 | 16735 ft | 414 kts | 292° |